createdAt,value
2023-04-19T00:01:17.668Z,96347.75
2023-04-19T00:03:45.153Z,96340.38
2023-04-19T00:06:14.654Z,96336.02
2023-04-19T00:08:41.911Z,96336.10
2023-04-19T00:11:09.481Z,96332.73
2023-04-19T00:13:36.044Z,96331.16
2023-04-19T00:16:02.899Z,96324.69
2023-04-19T00:18:29.537Z,96322.40
2023-04-19T00:20:56.171Z,96312.50
2023-04-19T00:23:22.811Z,96313.84
2023-04-19T00:25:49.577Z,96307.16
2023-04-19T00:28:16.265Z,96302.67
2023-04-19T00:30:42.913Z,96302.52
2023-04-19T00:33:12.244Z,96300.02
2023-04-19T00:35:42.543Z,96295.42
2023-04-19T00:38:09.372Z,96293.02
2023-04-19T00:40:37.451Z,96291.50
2023-04-19T00:43:04.934Z,96292.23
2023-04-19T00:45:34.277Z,96287.26
2023-04-19T00:48:01.457Z,96290.95
2023-04-19T00:50:28.225Z,96290.27
2023-04-19T00:52:57.180Z,96288.38
2023-04-19T00:55:25.487Z,96284.28
2023-04-19T00:57:53.233Z,96282.02
2023-04-19T01:00:20.445Z,96279.95
2023-04-19T01:02:47.941Z,96279.30
2023-04-19T01:05:14.910Z,96275.60
2023-04-19T01:07:42.710Z,96278.44
2023-04-19T01:10:09.955Z,96276.06
2023-04-19T01:12:36.875Z,96275.64
2023-04-19T01:15:04.057Z,96272.48
2023-04-19T01:17:32.604Z,96267.34
2023-04-19T01:20:07.912Z,96272.81
2023-04-19T01:22:36.958Z,96262.35
2023-04-19T01:25:05.842Z,96263.03
2023-04-19T01:27:32.743Z,96264.23
2023-04-19T01:29:59.312Z,96261.69
2023-04-19T01:32:26.892Z,96258.52
2023-04-19T01:34:55.815Z,96252.80
2023-04-19T01:37:22.604Z,96251.53
2023-04-19T01:39:49.254Z,96249.70
2023-04-19T01:42:16.001Z,96247.86
2023-04-19T01:44:42.762Z,96242.33
2023-04-19T01:47:09.627Z,96237.30
2023-04-19T01:49:36.415Z,96235.87
2023-04-19T01:52:03.094Z,96231.95
2023-04-19T01:54:29.796Z,96226.83
2023-04-19T01:56:56.508Z,96225.52
2023-04-19T01:59:23.246Z,96218.45
2023-04-19T02:01:51.051Z,96221.59
2023-04-19T02:04:21.481Z,96217.27
2023-04-19T02:06:48.083Z,96217.27
2023-04-19T02:09:14.661Z,96212.94
2023-04-19T02:11:42.185Z,96207.97
2023-04-19T02:14:09.099Z,96203.29
2023-04-19T02:16:36.342Z,96201.34
2023-04-19T02:19:04.040Z,96196.27
2023-04-19T02:21:31.281Z,96200.13
2023-04-19T02:23:58.313Z,96196.89
2023-04-19T02:26:26.215Z,96193.36
2023-04-19T02:28:52.823Z,96197.73
2023-04-19T02:31:19.500Z,96199.20
2023-04-19T02:33:46.293Z,96201.23
2023-04-19T02:36:12.915Z,96203.70
2023-04-19T02:38:39.646Z,96202.09
2023-04-19T02:41:07.191Z,96202.91
2023-04-19T02:43:33.860Z,96203.95
2023-04-19T02:46:01.384Z,96206.15
2023-04-19T02:48:28.476Z,96201.58
2023-04-19T02:50:55.217Z,96199.50
2023-04-19T02:53:22.721Z,96200.02
2023-04-19T02:55:50.048Z,96200.96
2023-04-19T02:58:18.684Z,96195.80
2023-04-19T03:01:06.392Z,96189.11
2023-04-19T03:03:33.131Z,96182.11
2023-04-19T03:05:59.918Z,96180.17
2023-04-19T03:08:26.662Z,96173.42
2023-04-19T03:10:53.465Z,96166.66
2023-04-19T03:13:20.199Z,96164.08
2023-04-19T03:15:47.840Z,96156.10
2023-04-19T03:18:16.492Z,96156.89
2023-04-19T03:20:43.129Z,96153.77
2023-04-19T03:23:10.170Z,96151.58
2023-04-19T03:25:37.233Z,96144.48
2023-04-19T03:28:16.188Z,96145.93
2023-04-19T03:31:15.062Z,96142.27
2023-04-19T03:33:42.014Z,96146.39
2023-04-19T03:36:09.573Z,96147.73
2023-04-19T03:38:37.406Z,96146.25
2023-04-19T03:41:17.717Z,96140.81
2023-04-19T03:43:45.230Z,96136.88
2023-04-19T03:46:11.921Z,96135.70
2023-04-19T03:48:38.675Z,96134.04
2023-04-19T03:51:06.087Z,96130.40
2023-04-19T03:53:32.989Z,96129.42
2023-04-19T03:56:00.231Z,96125.81
2023-04-19T03:58:27.342Z,96121.64
2023-04-19T04:00:59.316Z,96122.56
2023-04-19T04:03:26.238Z,96122.15
2023-04-19T04:05:54.748Z,96120.81
2023-04-19T04:08:21.312Z,96114.55
2023-04-19T04:10:47.860Z,96116.48
2023-04-19T04:13:14.894Z,96114.62
2023-04-19T04:15:48.511Z,96112.02
2023-04-19T04:18:16.955Z,96111.55
2023-04-19T04:20:44.329Z,96109.72
2023-04-19T04:23:11.573Z,96112.77
2023-04-19T04:25:42.378Z,96110.18
2023-04-19T04:28:11.261Z,96115.23
2023-04-19T04:30:39.993Z,96111.71
2023-04-19T04:33:08.021Z,96108.52
2023-04-19T04:35:34.603Z,96109.08
2023-04-19T04:38:17.532Z,96110.33
2023-04-19T04:40:52.985Z,96108.45
2023-04-19T04:43:21.250Z,96104.91
2023-04-19T04:45:48.128Z,96100.52
2023-04-19T04:48:15.614Z,96103.34
2023-04-19T04:50:43.496Z,96099.21
2023-04-19T04:53:13.157Z,96098.14
2023-04-19T04:55:41.903Z,96091.75
2023-04-19T04:58:08.543Z,96093.17
2023-04-19T05:00:55.430Z,96088.28
2023-04-19T05:03:22.459Z,96089.44
2023-04-19T05:05:54.237Z,96087.97
2023-04-19T05:08:20.870Z,96090.98
2023-04-19T05:10:47.740Z,96093.39
2023-04-19T05:13:14.550Z,96100.92
2023-04-19T05:15:41.280Z,96103.42
2023-04-19T05:18:08.448Z,96108.63
2023-04-19T05:20:35.293Z,96110.98
2023-04-19T05:23:07.581Z,96109.98
2023-04-19T05:25:35.092Z,96108.85
2023-04-19T05:28:03.106Z,96106.89
2023-04-19T05:30:33.435Z,96104.54
2023-04-19T05:33:00.917Z,96102.30
2023-04-19T05:35:27.532Z,96102.67
2023-04-19T05:37:55.627Z,96101.08
2023-04-19T05:40:23.859Z,96096.39
2023-04-19T05:42:50.700Z,96100.63
2023-04-19T05:45:18.415Z,96098.20
2023-04-19T05:47:45.022Z,96099.73
2023-04-19T05:50:19.935Z,96101.73
2023-04-19T05:52:54.070Z,96100.47
2023-04-19T05:55:20.846Z,96095.79
2023-04-19T05:57:47.620Z,96095.24
2023-04-19T06:00:16.563Z,96096.83
2023-04-19T06:02:47.698Z,96090.06
2023-04-19T06:05:14.765Z,96085.61
2023-04-19T06:07:47.094Z,96086.41
2023-04-19T06:10:17.383Z,96088.86
2023-04-19T06:12:44.261Z,96086.29
2023-04-19T06:15:11.251Z,96083.71
2023-04-19T06:17:38.039Z,96084.39
2023-04-19T06:20:07.131Z,96088.13
2023-04-19T06:22:33.743Z,96085.91
2023-04-19T06:25:00.814Z,96083.86
2023-04-19T06:27:27.626Z,96085.16
2023-04-19T06:29:54.728Z,96088.77
2023-04-19T06:32:21.340Z,96088.02
2023-04-19T06:34:47.963Z,96093.23
2023-04-19T06:37:14.829Z,96093.05
2023-04-19T06:39:41.390Z,96096.63
2023-04-19T06:42:08.535Z,96107.16
2023-04-19T06:44:35.212Z,96106.21
2023-04-19T06:47:01.925Z,96108.78
2023-04-19T06:49:28.468Z,96110.98
2023-04-19T06:51:55.473Z,96113.35
2023-04-19T06:54:22.308Z,96118.98
2023-04-19T06:56:49.889Z,96114.85
2023-04-19T06:59:18.894Z,96107.57
2023-04-19T07:01:46.868Z,96108.38
2023-04-19T07:04:14.653Z,96107.73
2023-04-19T07:06:41.688Z,96111.72
2023-04-19T07:09:08.270Z,96115.35
2023-04-19T07:11:34.985Z,96111.23
2023-04-19T07:14:01.887Z,96110.85
2023-04-19T07:16:28.870Z,96110.48
2023-04-19T07:18:56.535Z,96108.52
2023-04-19T07:21:25.992Z,96107.50
2023-04-19T07:23:52.800Z,96109.91
2023-04-19T07:26:19.738Z,96108.20
2023-04-19T07:28:46.327Z,96110.92
2023-04-19T07:31:17.385Z,96108.64
2023-04-19T07:33:44.737Z,96108.20
2023-04-19T07:36:11.624Z,96102.06
2023-04-19T07:38:39.442Z,96100.39
2023-04-19T07:41:06.073Z,96098.61
2023-04-19T07:43:32.901Z,96099.69
2023-04-19T07:45:59.550Z,96099.05
2023-04-19T07:48:26.274Z,96103.06
2023-04-19T07:50:53.097Z,96104.84
2023-04-19T07:53:19.962Z,96106.90
2023-04-19T07:55:46.556Z,96109.19
2023-04-19T07:58:13.366Z,96108.45
2023-04-19T08:00:40.066Z,96106.98
2023-04-19T08:03:06.904Z,96107.04
2023-04-19T08:05:33.998Z,96110.97
2023-04-19T08:08:00.737Z,96109.89
2023-04-19T08:10:28.725Z,96110.13
2023-04-19T08:13:05.290Z,96108.45
2023-04-19T08:18:04.710Z,96113.05
2023-04-19T08:20:32.674Z,96113.98
2023-04-19T08:23:04.631Z,96114.98
2023-04-19T08:25:38.346Z,96116.60
2023-04-19T08:28:06.028Z,96114.23
2023-04-19T08:30:32.745Z,96115.53
2023-04-19T08:33:00.790Z,96114.16
2023-04-19T08:35:27.380Z,96119.77
2023-04-19T08:37:54.051Z,96119.03
2023-04-19T08:40:20.780Z,96121.61
2023-04-19T08:42:47.513Z,96123.33
2023-04-19T08:47:56.816Z,96122.84
2023-04-19T08:50:35.429Z,96126.11
2023-04-19T08:56:03.498Z,96124.44
2023-04-19T08:58:44.562Z,96124.02
2023-04-19T09:01:32.960Z,96122.88
2023-04-19T09:04:26.601Z,96121.79
2023-04-19T09:06:52.596Z,96121.80
2023-04-19T09:11:54.059Z,96126.33
2023-04-19T09:14:22.113Z,96125.93
2023-04-19T09:16:51.401Z,96126.59
2023-04-19T09:19:23.940Z,96126.36
2023-04-19T09:21:53.267Z,96127.94
2023-04-19T09:25:04.576Z,96127.11
2023-04-19T09:27:34.282Z,96125.83
2023-04-19T09:30:02.626Z,96126.84
2023-04-19T09:32:45.711Z,96127.92
2023-04-19T09:35:12.478Z,96131.34
2023-04-19T09:38:02.128Z,96133.07
2023-04-19T09:40:28.550Z,96132.73
2023-04-19T09:45:30.870Z,96135.09
2023-04-19T09:48:09.180Z,96134.26
2023-04-19T09:50:57.445Z,96133.79
2023-04-19T09:53:28.991Z,96136.02
2023-04-19T09:56:01.576Z,96131.64
2023-04-19T09:58:41.524Z,96133.44
2023-04-19T10:01:16.149Z,96130.38
2023-04-19T10:03:48.872Z,96128.94
2023-04-19T10:06:35.511Z,96128.40
2023-04-19T10:09:04.933Z,96133.02
2023-04-19T10:11:40.277Z,96136.08
2023-04-19T10:14:11.102Z,96131.71
2023-04-19T10:16:38.596Z,96129.80
2023-04-19T10:19:14.246Z,96129.45
2023-04-19T10:21:41.911Z,96125.71
2023-04-19T10:24:09.822Z,96127.95
2023-04-19T10:27:13.128Z,96123.83
2023-04-19T10:30:17.367Z,96122.21
2023-04-19T10:32:51.799Z,96124.05
2023-04-19T10:35:22.648Z,96125.01
2023-04-19T10:38:09.534Z,96124.65
2023-04-19T10:40:57.097Z,96125.44
2023-04-19T10:43:25.377Z,96124.42
2023-04-19T10:45:52.615Z,96126.27
2023-04-19T10:48:34.788Z,96127.71
2023-04-19T10:51:35.113Z,96126.02
2023-04-19T10:54:03.563Z,96121.23
2023-04-19T10:56:33.374Z,96119.81
2023-04-19T10:59:07.106Z,96116.30
2023-04-19T11:01:45.007Z,96111.44
2023-04-19T11:04:14.772Z,96109.38
2023-04-19T11:06:51.102Z,96110.22
2023-04-19T11:09:28.117Z,96110.29
2023-04-19T11:12:00.246Z,96100.83
2023-04-19T11:14:30.602Z,96096.23
2023-04-19T11:16:57.512Z,96094.16
2023-04-19T11:19:24.509Z,96097.51
2023-04-19T11:21:51.163Z,96099.21
2023-04-19T11:24:20.277Z,96095.52
2023-04-19T11:26:51.050Z,96099.34
2023-04-19T11:29:19.815Z,96101.15
2023-04-19T11:31:46.670Z,96098.11
2023-04-19T11:34:14.197Z,96098.82
2023-04-19T11:36:51.667Z,96100.01
2023-04-19T11:39:18.928Z,96101.06
2023-04-19T11:41:46.651Z,96110.80
2023-04-19T11:44:15.234Z,96108.23
2023-04-19T11:46:42.594Z,96113.16
2023-04-19T11:49:09.266Z,96110.51
2023-04-19T11:51:40.923Z,96107.64
2023-04-19T11:54:16.136Z,96110.09
2023-04-19T11:56:58.616Z,96114.41
2023-04-19T11:59:25.427Z,96117.14
2023-04-19T12:01:52.183Z,96120.25
2023-04-19T12:04:20.530Z,96124.11
2023-04-19T12:06:57.213Z,96124.05
2023-04-19T12:09:24.208Z,96127.41
2023-04-19T12:11:51.161Z,96128.03
2023-04-19T12:14:20.835Z,96127.40
2023-04-19T12:17:06.796Z,96127.11
2023-04-19T12:19:42.116Z,96128.98
2023-04-19T12:22:23.555Z,96129.33
2023-04-19T12:24:55.395Z,96131.64
2023-04-19T12:27:22.641Z,96130.69
2023-04-19T12:29:49.994Z,96132.95
2023-04-19T12:32:16.623Z,96133.58
2023-04-19T12:34:43.522Z,96134.79
2023-04-19T12:37:10.321Z,96138.38
2023-04-19T12:39:37.251Z,96133.09
2023-04-19T12:42:05.406Z,96137.70
2023-04-19T12:44:31.996Z,96140.91
2023-04-19T12:46:58.659Z,96138.98
2023-04-19T12:49:25.222Z,96139.38
2023-04-19T12:51:52.068Z,96137.97
2023-04-19T12:54:19.173Z,96137.67
2023-04-19T12:56:45.741Z,96138.77
2023-04-19T12:59:12.398Z,96139.41
2023-04-19T13:01:39.091Z,96139.33
2023-04-19T13:04:07.329Z,96136.98
2023-04-19T13:06:34.095Z,96135.79
2023-04-19T13:09:01.569Z,96137.42
2023-04-19T13:11:28.617Z,96142.15
2023-04-19T13:13:55.219Z,96146.18
2023-04-19T13:16:22.651Z,96148.04
2023-04-19T13:18:51.741Z,96146.46
2023-04-19T13:21:18.448Z,96144.80
2023-04-19T13:23:45.103Z,96139.02
2023-04-19T13:26:11.782Z,96140.88
2023-04-19T13:28:41.279Z,96141.85
2023-04-19T13:31:08.072Z,96142.80
2023-04-19T13:33:34.988Z,96143.05
2023-04-19T13:36:02.219Z,96145.52
2023-04-19T13:38:28.958Z,96145.73
2023-04-19T13:40:55.555Z,96147.29
2023-04-19T13:43:22.087Z,96148.39
2023-04-19T13:45:48.641Z,96148.34
2023-04-19T13:48:15.288Z,96147.40
2023-04-19T13:50:41.872Z,96148.92
2023-04-19T13:53:08.484Z,96148.41
2023-04-19T13:55:35.139Z,96150.17
2023-04-19T13:58:01.894Z,96150.41
2023-04-19T14:00:28.686Z,96146.33
2023-04-19T14:02:56.365Z,96142.05
2023-04-19T14:05:23.168Z,96137.21
2023-04-19T14:07:49.833Z,96134.36
2023-04-19T14:10:16.552Z,96132.98
2023-04-19T14:12:44.534Z,96130.31
2023-04-19T14:15:12.612Z,96127.63
2023-04-19T14:17:39.189Z,96118.81
2023-04-19T14:20:07.618Z,96117.19
2023-04-19T14:22:34.695Z,96114.41
2023-04-19T14:25:01.904Z,96116.14
2023-04-19T14:27:28.583Z,96117.05
2023-04-19T14:29:55.252Z,96114.25
2023-04-19T14:32:26.436Z,96115.19
2023-04-19T14:34:55.260Z,96115.96
2023-04-19T14:37:23.614Z,96116.68
2023-04-19T14:39:50.568Z,96109.25
2023-04-19T14:42:17.201Z,96113.31
2023-04-19T14:44:45.354Z,96118.30
2023-04-19T14:47:12.608Z,96118.93
2023-04-19T14:49:41.173Z,96119.08
2023-04-19T14:52:07.928Z,96122.80
2023-04-19T14:54:34.605Z,96125.58
2023-04-19T14:57:01.881Z,96130.77
2023-04-19T14:59:29.828Z,96129.66
2023-04-19T15:01:56.738Z,96127.11
2023-04-19T15:04:23.921Z,96129.14
2023-04-19T15:06:50.872Z,96136.89
2023-04-19T15:09:17.651Z,96134.70
2023-04-19T15:11:44.829Z,96133.08
2023-04-19T15:14:11.391Z,96135.27
2023-04-19T15:16:38.210Z,96139.52
2023-04-19T15:19:06.751Z,96146.73
2023-04-19T15:21:33.553Z,96148.82
2023-04-19T15:24:00.863Z,96149.76
2023-04-19T15:26:27.959Z,96151.46
2023-04-19T15:28:55.809Z,96148.66
2023-04-19T15:31:24.457Z,96150.42
2023-04-19T15:33:51.225Z,96151.20
2023-04-19T15:36:17.771Z,96150.38
2023-04-19T15:38:44.467Z,96154.02
2023-04-19T15:41:11.047Z,96154.29
2023-04-19T15:43:37.666Z,96156.25
2023-04-19T15:46:04.312Z,96155.86
2023-04-19T15:48:30.856Z,96162.64
2023-04-19T15:50:57.439Z,96162.80
2023-04-19T15:53:23.976Z,96168.11
2023-04-19T15:55:50.648Z,96167.66
2023-04-19T15:58:17.233Z,96173.00
2023-04-19T16:00:44.090Z,96178.71
2023-04-19T16:03:11.778Z,96179.89
2023-04-19T16:05:38.592Z,96181.36
2023-04-19T16:08:11.153Z,96180.62
2023-04-19T16:10:38.637Z,96181.27
2023-04-19T16:13:05.681Z,96180.21
2023-04-19T16:15:32.314Z,96181.56
2023-04-19T16:17:59.077Z,96179.84
2023-04-19T16:20:26.232Z,96179.38
2023-04-19T16:22:53.050Z,96181.14
2023-04-19T16:25:19.805Z,96184.14
2023-04-19T16:27:47.749Z,96183.96
2023-04-19T16:30:15.908Z,96187.26
2023-04-19T16:32:43.258Z,96188.64
2023-04-19T16:35:10.663Z,96187.13
2023-04-19T16:37:37.256Z,96192.33
2023-04-19T16:40:09.497Z,96192.88
2023-04-19T16:42:38.428Z,96195.39
2023-04-19T16:45:07.711Z,96195.45
2023-04-19T16:47:35.311Z,96199.18
2023-04-19T16:50:04.185Z,96196.73
2023-04-19T16:52:35.153Z,96197.44
2023-04-19T16:55:03.617Z,96197.13
2023-04-19T16:57:31.369Z,96199.73
2023-04-19T16:59:58.861Z,96205.16
2023-04-19T17:02:26.270Z,96205.30
2023-04-19T17:04:53.268Z,96206.92
2023-04-19T17:07:19.961Z,96211.30
2023-04-19T17:09:46.670Z,96210.41
2023-04-19T17:12:13.427Z,96213.38
2023-04-19T17:14:40.157Z,96208.89
2023-04-19T17:17:06.835Z,96207.27
2023-04-19T17:19:35.616Z,96210.74
2023-04-19T17:22:05.255Z,96212.41
2023-04-19T17:24:32.964Z,96213.46
2023-04-19T17:27:00.309Z,96216.77
2023-04-19T17:29:27.354Z,96219.34
2023-04-19T17:31:55.575Z,96217.88
2023-04-19T17:34:22.839Z,96218.11
2023-04-19T17:36:49.473Z,96218.20
2023-04-19T17:39:16.298Z,96221.09
2023-04-19T17:41:46.150Z,96224.71
2023-04-19T17:44:12.879Z,96226.29
2023-04-19T17:46:39.930Z,96230.58
2023-04-19T17:49:06.622Z,96230.45
2023-04-19T17:51:33.400Z,96237.23
2023-04-19T17:54:00.043Z,96242.81
2023-04-19T17:56:26.720Z,96247.89
2023-04-19T17:58:58.441Z,96251.15
2023-04-19T18:01:29.676Z,96256.41
2023-04-19T18:03:57.392Z,96256.92
2023-04-19T18:06:32.073Z,96260.08
2023-04-19T18:08:59.236Z,96260.05
2023-04-19T18:11:28.317Z,96259.19
2023-04-19T18:14:03.226Z,96263.63
2023-04-19T18:16:33.863Z,96267.39
2023-04-19T18:19:05.583Z,96270.12
2023-04-19T18:21:32.922Z,96274.86
2023-04-19T18:23:59.556Z,96270.45
2023-04-19T18:26:36.446Z,96275.98
2023-04-19T18:29:03.152Z,96277.52
2023-04-19T18:31:29.724Z,96281.42
2023-04-19T18:33:56.246Z,96278.70
2023-04-19T18:36:23.371Z,96280.56
2023-04-19T18:38:50.091Z,96280.73
2023-04-19T18:41:16.729Z,96284.41
2023-04-19T18:43:59.548Z,96281.89
2023-04-19T18:46:30.040Z,96280.59
2023-04-19T18:48:59.641Z,96281.31
2023-04-19T18:51:27.350Z,96288.98
2023-04-19T18:53:53.900Z,96292.55
2023-04-19T18:56:20.445Z,96296.72
2023-04-19T18:58:48.361Z,96299.45
2023-04-19T19:01:15.180Z,96300.92
2023-04-19T19:06:16.955Z,96305.06
2023-04-19T19:08:44.813Z,96302.20
2023-04-19T19:11:32.942Z,96297.65
2023-04-19T19:13:58.485Z,96296.84
2023-04-19T19:18:51.812Z,96296.14
2023-04-19T19:21:18.459Z,96293.15
2023-04-19T19:23:44.957Z,96295.01
2023-04-19T19:26:12.557Z,96299.72
2023-04-19T19:28:39.386Z,96302.00
2023-04-19T19:31:06.239Z,96301.30
2023-04-19T19:33:33.258Z,96303.20
2023-04-19T19:36:00.248Z,96300.36
2023-04-19T19:38:26.968Z,96302.92
2023-04-19T19:41:31.087Z,96301.33
2023-04-19T19:43:40.908Z,96309.33
2023-04-19T19:46:08.436Z,96308.52
2023-04-19T19:48:42.351Z,96311.10
2023-04-19T19:51:36.290Z,96311.55
2023-04-19T19:53:55.895Z,96312.95
2023-04-19T19:56:24.387Z,96311.09
2023-04-19T19:58:52.094Z,96307.38
2023-04-19T20:01:21.947Z,96307.08
2023-04-19T20:03:49.667Z,96302.81
2023-04-19T20:06:57.119Z,96302.44
2023-04-19T20:09:03.842Z,96301.82
2023-04-19T20:11:30.571Z,96303.09
2023-04-19T20:13:57.101Z,96305.58
2023-04-19T20:16:24.154Z,96306.16
2023-04-19T20:18:53.649Z,96304.70
2023-04-19T20:21:20.433Z,96300.70
2023-04-19T20:23:47.014Z,96299.46
2023-04-19T20:26:14.311Z,96301.27
2023-04-19T20:28:40.984Z,96306.23
2023-04-19T20:31:08.207Z,96305.77
2023-04-19T20:33:34.975Z,96305.89
2023-04-19T20:36:06.971Z,96308.00
2023-04-19T20:38:36.629Z,96306.85
2023-04-19T20:41:03.350Z,96308.20
2023-04-19T20:43:29.932Z,96308.20
2023-04-19T20:45:56.552Z,96310.52
2023-04-19T20:48:23.292Z,96310.30
2023-04-19T20:50:50.176Z,96311.27
2023-04-19T20:53:16.864Z,96314.08
2023-04-19T20:55:44.052Z,96311.11
2023-04-19T20:58:13.611Z,96313.86
2023-04-19T21:00:40.473Z,96315.82
2023-04-19T21:03:07.265Z,96313.13
2023-04-19T21:05:34.611Z,96310.76
2023-04-19T21:08:01.647Z,96315.12
2023-04-19T21:10:29.000Z,96314.79
2023-04-19T21:12:56.666Z,96313.98
2023-04-19T21:15:23.328Z,96312.84
2023-04-19T21:17:50.103Z,96307.09
2023-04-19T21:20:17.515Z,96306.97
2023-04-19T21:22:46.497Z,96310.34
2023-04-19T21:25:13.180Z,96308.64
2023-04-19T21:27:41.234Z,96310.52
2023-04-19T21:30:09.838Z,96311.36
2023-04-19T21:32:36.669Z,96312.73
2023-04-19T21:35:03.932Z,96313.37
2023-04-19T21:37:31.221Z,96313.25
2023-04-19T21:39:58.055Z,96310.80
2023-04-19T21:42:25.238Z,96310.69
2023-04-19T21:44:51.998Z,96306.81
2023-04-19T21:47:18.603Z,96308.63
2023-04-19T21:49:46.475Z,96308.80
2023-04-19T21:52:13.116Z,96308.20
2023-04-19T21:54:39.670Z,96309.63
2023-04-19T21:57:06.554Z,96309.91
2023-04-19T21:59:34.906Z,96311.92
2023-04-19T22:02:01.700Z,96312.38
2023-04-19T22:04:31.416Z,96314.23
2023-04-19T22:07:01.457Z,96318.20
2023-04-19T22:09:28.966Z,96317.70
2023-04-19T22:11:55.517Z,96318.15
2023-04-19T22:14:24.999Z,96318.90
2023-04-19T22:16:53.236Z,96318.84
2023-04-19T22:19:20.907Z,96317.97
2023-04-19T22:21:47.789Z,96313.43
2023-04-19T22:24:14.371Z,96315.81
2023-04-19T22:26:40.923Z,96311.86
2023-04-19T22:29:07.646Z,96313.59
2023-04-19T22:31:34.334Z,96314.43
2023-04-19T22:34:00.994Z,96317.52
2023-04-19T22:36:27.759Z,96319.43
2023-04-19T22:38:54.354Z,96318.17
2023-04-19T22:41:20.904Z,96316.88
2023-04-19T22:43:47.541Z,96321.98
2023-04-19T22:46:14.222Z,96318.23
2023-04-19T22:48:41.010Z,96319.14
2023-04-19T22:51:07.552Z,96318.34
2023-04-19T22:53:36.711Z,96314.81
2023-04-19T22:56:03.983Z,96312.46
2023-04-19T22:58:30.675Z,96312.16
2023-04-19T23:00:57.251Z,96307.06
2023-04-19T23:03:24.012Z,96306.38
2023-04-19T23:05:53.651Z,96308.13
2023-04-19T23:08:20.523Z,96312.23
2023-04-19T23:10:50.163Z,96310.74
2023-04-19T23:13:17.060Z,96306.75
2023-04-19T23:15:43.695Z,96307.48
2023-04-19T23:18:11.187Z,96309.65
2023-04-19T23:20:37.780Z,96311.27
2023-04-19T23:23:05.005Z,96313.54
2023-04-19T23:25:32.035Z,96315.55
2023-04-19T23:27:59.150Z,96316.46
2023-04-19T23:30:26.466Z,96317.71
2023-04-19T23:32:53.540Z,96317.11
2023-04-19T23:35:20.527Z,96316.23
2023-04-19T23:37:47.196Z,96310.39
2023-04-19T23:40:14.603Z,96310.02
2023-04-19T23:42:41.156Z,96308.77
2023-04-19T23:45:08.534Z,96308.52
2023-04-19T23:47:35.145Z,96304.64
2023-04-19T23:50:02.240Z,96298.80
2023-04-19T23:52:28.869Z,96298.02
2023-04-19T23:54:55.423Z,96294.43
2023-04-19T23:57:22.080Z,96291.94
2023-04-19T23:59:49.818Z,96291.62
